createdAt,value
2022-08-21T00:02:15.494Z,23.91
2022-08-21T00:04:48.099Z,23.85
2022-08-21T00:07:16.831Z,23.89
2022-08-21T00:09:45.370Z,23.90
2022-08-21T00:12:13.527Z,23.82
2022-08-21T00:14:42.145Z,23.70
2022-08-21T00:17:12.030Z,23.58
2022-08-21T00:19:40.135Z,23.60
2022-08-21T00:22:08.166Z,23.67
2022-08-21T00:24:36.290Z,23.63
2022-08-21T00:27:04.428Z,23.68
2022-08-21T00:29:32.611Z,23.84
2022-08-21T00:32:01.146Z,23.80
2022-08-21T00:34:30.537Z,23.80
2022-08-21T00:36:58.594Z,23.73
2022-08-21T00:39:26.647Z,23.79
2022-08-21T00:41:54.645Z,23.76
2022-08-21T00:44:22.699Z,23.81
2022-08-21T00:46:50.727Z,23.83
2022-08-21T00:49:19.545Z,23.84
2022-08-21T00:51:52.239Z,23.90
2022-08-21T00:54:22.901Z,23.78
2022-08-21T00:56:56.446Z,23.85
2022-08-21T00:59:28.726Z,23.75
2022-08-21T01:01:56.818Z,23.68
2022-08-21T01:04:25.715Z,23.70
2022-08-21T01:06:56.400Z,23.73
2022-08-21T01:09:24.539Z,23.71
2022-08-21T01:11:53.258Z,23.63
2022-08-21T01:14:21.881Z,23.45
2022-08-21T01:16:53.601Z,23.59
2022-08-21T01:19:23.737Z,23.67
2022-08-21T01:21:55.090Z,23.69
2022-08-21T01:24:23.518Z,23.71
2022-08-21T01:26:53.133Z,23.75
2022-08-21T01:29:31.747Z,23.76
2022-08-21T01:32:00.730Z,23.70
2022-08-21T01:34:28.782Z,23.77
2022-08-21T01:36:58.222Z,23.57
2022-08-21T01:39:26.331Z,23.71
2022-08-21T01:41:54.406Z,23.75
2022-08-21T01:44:23.385Z,23.80
2022-08-21T01:46:53.687Z,23.78
2022-08-21T01:49:22.201Z,23.76
2022-08-21T01:51:50.418Z,23.68
2022-08-21T01:54:20.036Z,23.68
2022-08-21T01:56:51.037Z,23.66
2022-08-21T01:59:19.350Z,23.64
2022-08-21T02:01:47.417Z,23.61
2022-08-21T02:04:15.790Z,23.55
2022-08-21T02:06:44.325Z,23.51
2022-08-21T02:09:13.438Z,23.47
2022-08-21T02:11:44.475Z,23.37
2022-08-21T02:14:15.327Z,23.42
2022-08-21T02:17:08.806Z,23.27
2022-08-21T02:19:40.101Z,23.32
2022-08-21T02:22:09.684Z,23.25
2022-08-21T02:24:38.456Z,23.19
2022-08-21T02:27:26.494Z,23.12
2022-08-21T02:29:55.750Z,22.98
2022-08-21T02:32:23.822Z,22.94
2022-08-21T02:34:51.825Z,22.89
2022-08-21T02:37:19.883Z,22.86
2022-08-21T02:39:47.965Z,22.81
2022-08-21T02:42:16.180Z,22.78
2022-08-21T02:44:45.714Z,22.73
2022-08-21T02:47:13.690Z,22.70
2022-08-21T02:49:41.792Z,22.64
2022-08-21T02:52:09.832Z,22.62
2022-08-21T02:54:37.909Z,22.58
2022-08-21T02:57:06.042Z,22.49
2022-08-21T02:59:34.131Z,22.43
2022-08-21T03:02:03.606Z,22.37
2022-08-21T03:04:31.774Z,22.23
2022-08-21T03:07:00.770Z,22.16
2022-08-21T03:09:29.002Z,22.20
2022-08-21T03:11:57.068Z,22.27
2022-08-21T03:14:25.119Z,22.25
2022-08-21T03:16:53.138Z,22.25
2022-08-21T03:19:23.026Z,22.20
2022-08-21T03:21:51.058Z,22.16
2022-08-21T03:24:19.192Z,22.21
2022-08-21T03:26:49.355Z,22.17
2022-08-21T03:29:18.033Z,22.19
2022-08-21T03:31:46.247Z,22.19
2022-08-21T03:34:15.030Z,22.17
2022-08-21T03:36:44.424Z,22.18
2022-08-21T03:39:12.565Z,22.16
2022-08-21T03:41:40.607Z,22.23
2022-08-21T03:44:08.635Z,22.15
2022-08-21T03:46:36.766Z,22.19
2022-08-21T03:49:05.135Z,22.19
2022-08-21T03:51:34.710Z,22.04
2022-08-21T03:54:04.504Z,22.23
2022-08-21T03:56:32.607Z,22.22
2022-08-21T03:59:00.754Z,22.26
2022-08-21T04:01:29.091Z,22.26
2022-08-21T04:03:57.691Z,22.38
2022-08-21T04:06:27.083Z,22.46
2022-08-21T04:08:55.570Z,22.52
2022-08-21T04:11:25.898Z,22.57
2022-08-21T04:13:54.471Z,22.61
2022-08-21T04:16:22.515Z,22.67
2022-08-21T04:18:50.560Z,22.74
2022-08-21T04:21:18.652Z,22.76
2022-08-21T04:23:51.981Z,22.80
2022-08-21T04:26:19.973Z,22.94
2022-08-21T04:28:49.641Z,23.06
2022-08-21T04:31:17.749Z,23.13
2022-08-21T04:33:45.947Z,23.24
2022-08-21T04:36:13.994Z,23.34
2022-08-21T04:38:44.702Z,23.60
2022-08-21T04:41:13.535Z,23.65
2022-08-21T04:43:41.974Z,23.75
2022-08-21T04:46:13.514Z,23.84
2022-08-21T04:48:42.636Z,24.03
2022-08-21T04:51:14.517Z,24.11
2022-08-21T04:53:46.885Z,24.18
2022-08-21T04:56:21.054Z,24.27
2022-08-21T04:58:50.902Z,24.36
2022-08-21T05:01:25.108Z,24.60
2022-08-21T05:03:57.565Z,24.63
2022-08-21T05:06:26.411Z,24.69
2022-08-21T05:09:01.960Z,24.86
2022-08-21T05:11:31.480Z,24.93
2022-08-21T05:13:59.837Z,25.13
2022-08-21T05:16:30.177Z,25.27
2022-08-21T05:19:05.703Z,25.41
2022-08-21T05:21:33.853Z,25.47
2022-08-21T05:24:02.109Z,25.62
2022-08-21T05:26:30.921Z,25.78
2022-08-21T05:28:59.304Z,25.95
2022-08-21T05:31:28.817Z,26.07
2022-08-21T05:33:57.690Z,26.22
2022-08-21T05:36:26.146Z,26.32
2022-08-21T05:38:54.175Z,26.50
2022-08-21T05:41:22.409Z,26.53
2022-08-21T05:43:50.526Z,26.65
2022-08-21T05:46:19.099Z,26.84
2022-08-21T05:48:48.642Z,26.92
2022-08-21T05:51:18.628Z,27.02
2022-08-21T05:53:47.251Z,27.07
2022-08-21T05:56:15.846Z,27.22
2022-08-21T05:58:44.497Z,27.30
2022-08-21T06:01:12.549Z,27.19
2022-08-21T06:03:42.805Z,27.33
2022-08-21T06:06:12.541Z,27.45
2022-08-21T06:08:40.661Z,27.52
2022-08-21T06:11:09.377Z,27.83
2022-08-21T06:13:38.772Z,27.83
2022-08-21T06:16:09.169Z,27.90
2022-08-21T06:18:37.647Z,28.09
2022-08-21T06:21:06.255Z,28.35
2022-08-21T06:23:36.295Z,28.54
2022-08-21T06:26:05.877Z,28.72
2022-08-21T06:28:34.449Z,28.75
2022-08-21T06:31:02.940Z,28.70
2022-08-21T06:33:32.824Z,28.94
2022-08-21T06:36:01.050Z,29.11
2022-08-21T06:38:29.212Z,28.72
2022-08-21T06:40:58.585Z,28.68
2022-08-21T06:43:30.664Z,28.85
2022-08-21T06:46:08.820Z,28.95
2022-08-21T06:48:36.934Z,29.02
2022-08-21T06:51:05.591Z,29.19
2022-08-21T06:53:33.818Z,29.23
2022-08-21T06:56:03.545Z,29.17
2022-08-21T06:58:32.097Z,29.39
2022-08-21T07:01:01.231Z,29.06
2022-08-21T07:03:31.386Z,29.04
2022-08-21T07:05:59.912Z,29.22
2022-08-21T07:08:28.924Z,29.12
2022-08-21T07:10:59.365Z,29.32
2022-08-21T07:13:28.991Z,29.63
2022-08-21T07:16:01.565Z,29.55
2022-08-21T07:18:32.187Z,29.68
2022-08-21T07:21:00.217Z,29.47
2022-08-21T07:23:31.547Z,29.51
2022-08-21T07:26:00.412Z,29.72
2022-08-21T07:28:30.049Z,30.02
2022-08-21T07:31:00.594Z,30.28
2022-08-21T07:33:30.536Z,30.09
2022-08-21T07:35:58.802Z,30.02
2022-08-21T07:38:27.294Z,30.14
2022-08-21T07:40:57.831Z,30.32
2022-08-21T07:43:26.338Z,30.41
2022-08-21T07:45:56.226Z,30.36
2022-08-21T07:48:24.929Z,30.30
2022-08-21T07:50:53.230Z,30.29
2022-08-21T07:53:21.256Z,30.45
2022-08-21T07:55:49.267Z,30.63
2022-08-21T07:58:17.225Z,31.06
2022-08-21T08:00:45.750Z,31.43
2022-08-21T08:03:15.182Z,31.52
2022-08-21T08:05:50.610Z,31.58
2022-08-21T08:08:19.212Z,31.80
2022-08-21T08:10:47.844Z,31.88
2022-08-21T08:13:16.067Z,31.63
2022-08-21T08:15:44.828Z,31.70
2022-08-21T08:18:15.085Z,31.75
2022-08-21T08:20:43.260Z,31.88
2022-08-21T08:23:12.293Z,32.11
2022-08-21T08:25:40.655Z,31.97
2022-08-21T08:28:16.609Z,31.92
2022-08-21T08:30:46.637Z,31.41
2022-08-21T08:33:16.584Z,31.70
2022-08-21T08:35:48.664Z,32.25
2022-08-21T08:38:20.922Z,32.40
2022-08-21T08:40:54.297Z,32.51
2022-08-21T08:43:22.762Z,32.70
2022-08-21T08:45:55.710Z,32.88
2022-08-21T08:48:43.193Z,33.04
2022-08-21T08:51:20.433Z,33.25
2022-08-21T08:53:54.683Z,33.66
2022-08-21T08:56:28.511Z,32.71
2022-08-21T08:59:01.160Z,32.49
2022-08-21T09:01:32.603Z,32.48
2022-08-21T09:04:05.844Z,32.70
2022-08-21T09:06:58.487Z,32.82
2022-08-21T09:09:40.076Z,32.99
2022-08-21T09:12:14.921Z,33.15
2022-08-21T09:14:54.922Z,33.12
2022-08-21T09:17:39.565Z,33.15
2022-08-21T09:20:21.013Z,33.34
2022-08-21T09:23:03.013Z,32.83
2022-08-21T09:25:36.963Z,33.04
2022-08-21T09:28:05.060Z,33.02
2022-08-21T09:30:34.723Z,32.50
2022-08-21T09:33:02.893Z,32.34
2022-08-21T09:35:33.631Z,32.30
2022-08-21T09:38:06.646Z,32.52
2022-08-21T09:40:39.269Z,32.84
2022-08-21T09:43:18.259Z,32.92
2022-08-21T09:45:48.299Z,33.06
2022-08-21T09:48:26.365Z,33.24
2022-08-21T09:51:12.895Z,33.50
2022-08-21T09:53:46.935Z,33.38
2022-08-21T09:56:45.461Z,33.50
2022-08-21T09:59:21.115Z,33.22
2022-08-21T10:01:52.937Z,33.42
2022-08-21T10:04:27.125Z,33.32
2022-08-21T10:06:58.126Z,33.59
2022-08-21T10:09:26.436Z,33.20
2022-08-21T10:12:11.340Z,33.54
2022-08-21T10:14:52.105Z,33.53
2022-08-21T10:17:29.429Z,33.99
2022-08-21T10:20:05.723Z,34.12
2022-08-21T10:22:46.156Z,33.27
2022-08-21T10:25:21.740Z,33.16
2022-08-21T10:27:59.290Z,33.33
2022-08-21T10:30:38.840Z,33.31
2022-08-21T10:33:19.495Z,33.21
2022-08-21T10:35:56.217Z,33.40
2022-08-21T10:39:26.024Z,33.62
2022-08-21T10:42:24.799Z,33.83
2022-08-21T10:45:09.898Z,34.02
2022-08-21T10:47:43.979Z,34.03
2022-08-21T10:50:20.646Z,33.91
2022-08-21T10:53:05.843Z,33.76
2022-08-21T10:55:37.732Z,33.98
2022-08-21T10:58:13.142Z,34.28
2022-08-21T11:00:48.051Z,34.15
2022-08-21T11:03:19.988Z,34.00
2022-08-21T11:05:53.873Z,34.35
2022-08-21T11:08:26.822Z,34.42
2022-08-21T11:11:08.584Z,34.58
2022-08-21T11:13:42.631Z,34.55
2022-08-21T11:16:21.850Z,34.75
2022-08-21T11:18:55.917Z,34.92
2022-08-21T11:21:38.611Z,35.06
2022-08-21T11:24:20.515Z,35.04
2022-08-21T11:26:55.441Z,34.93
2022-08-21T11:29:29.185Z,35.09
2022-08-21T11:32:33.460Z,35.08
2022-08-21T11:35:12.302Z,34.83
2022-08-21T11:37:51.345Z,34.68
2022-08-21T11:40:34.211Z,34.34
2022-08-21T11:43:12.457Z,34.27
2022-08-21T11:45:46.963Z,34.26
2022-08-21T11:48:25.854Z,34.08
2022-08-21T11:50:55.917Z,34.11
2022-08-21T11:53:32.934Z,33.88
2022-08-21T11:56:04.053Z,34.06
2022-08-21T11:58:37.781Z,34.10
2022-08-21T12:01:11.498Z,33.85
2022-08-21T12:03:43.866Z,33.22
2022-08-21T12:06:14.329Z,32.76
2022-08-21T12:09:01.133Z,32.66
2022-08-21T12:11:30.939Z,32.66
2022-08-21T12:14:01.623Z,32.60
2022-08-21T12:16:35.532Z,32.37
2022-08-21T12:19:11.185Z,32.09
2022-08-21T12:21:51.145Z,31.96
2022-08-21T12:24:22.617Z,31.89
2022-08-21T12:26:58.089Z,31.70
2022-08-21T12:29:29.407Z,31.63
2022-08-21T12:32:04.375Z,31.39
2022-08-21T12:34:42.986Z,31.40
2022-08-21T12:37:19.222Z,31.33
2022-08-21T12:39:50.757Z,31.31
2022-08-21T12:42:22.846Z,31.26
2022-08-21T12:44:55.945Z,31.21
2022-08-21T12:47:32.090Z,31.22
2022-08-21T12:50:07.315Z,31.14
2022-08-21T12:52:39.594Z,31.04
2022-08-21T12:55:09.801Z,31.06
2022-08-21T12:57:40.265Z,30.96
2022-08-21T13:00:13.654Z,30.80
2022-08-21T13:02:49.890Z,30.66
2022-08-21T13:05:33.403Z,30.48
2022-08-21T13:08:05.479Z,30.40
2022-08-21T13:10:35.779Z,30.03
2022-08-21T13:13:12.713Z,29.94
2022-08-21T13:15:47.664Z,29.63
2022-08-21T13:18:23.918Z,29.28
2022-08-21T13:20:53.946Z,29.28
2022-08-21T13:23:28.643Z,29.15
2022-08-21T13:25:57.569Z,29.04
2022-08-21T13:28:26.463Z,28.77
2022-08-21T13:30:57.815Z,28.70
2022-08-21T13:33:35.193Z,28.60
2022-08-21T13:36:12.814Z,28.47
2022-08-21T13:38:43.741Z,28.40
2022-08-21T13:41:23.774Z,28.30
2022-08-21T13:43:58.202Z,28.21
2022-08-21T13:46:30.222Z,28.07
2022-08-21T13:48:58.690Z,27.93
2022-08-21T13:51:28.608Z,27.84
2022-08-21T13:53:57.363Z,27.74
2022-08-21T13:56:27.780Z,27.62
2022-08-21T13:58:57.486Z,27.54
2022-08-21T14:01:29.837Z,27.47
2022-08-21T14:04:03.598Z,27.38
2022-08-21T14:06:38.018Z,27.21
2022-08-21T14:09:12.759Z,27.16
2022-08-21T14:11:42.068Z,27.08
2022-08-21T14:14:22.081Z,27.04
2022-08-21T14:16:57.641Z,26.88
2022-08-21T14:19:28.646Z,26.81
2022-08-21T14:21:58.138Z,26.80
2022-08-21T14:24:35.829Z,26.65
2022-08-21T14:27:09.286Z,26.56
2022-08-21T14:29:39.706Z,26.41
2022-08-21T14:32:24.595Z,26.51
2022-08-21T14:34:54.947Z,26.57
2022-08-21T14:37:26.910Z,26.56
2022-08-21T14:39:55.544Z,26.62
2022-08-21T14:42:23.934Z,26.67
2022-08-21T14:44:52.773Z,26.69
2022-08-21T14:47:21.129Z,26.59
2022-08-21T14:49:49.226Z,26.66
2022-08-21T14:52:17.231Z,26.57
2022-08-21T14:54:46.665Z,26.50
2022-08-21T14:57:14.774Z,26.53
2022-08-21T14:59:43.242Z,26.64
2022-08-21T15:02:12.222Z,26.57
2022-08-21T15:04:40.323Z,26.56
2022-08-21T15:07:08.386Z,26.64
2022-08-21T15:09:36.362Z,26.64
2022-08-21T15:12:08.520Z,26.60
2022-08-21T15:14:41.142Z,26.59
2022-08-21T15:17:10.970Z,26.58
2022-08-21T15:19:40.599Z,26.64
2022-08-21T15:22:18.669Z,26.74
2022-08-21T15:24:56.193Z,26.78
2022-08-21T15:27:25.747Z,26.77
2022-08-21T15:29:55.336Z,26.80
2022-08-21T15:32:26.258Z,26.80
2022-08-21T15:34:55.556Z,26.84
2022-08-21T15:37:24.879Z,26.83
2022-08-21T15:39:54.489Z,26.78
2022-08-21T15:42:23.070Z,26.85
2022-08-21T15:44:53.759Z,26.77
2022-08-21T15:47:27.208Z,26.64
2022-08-21T15:49:55.261Z,26.67
2022-08-21T15:52:24.196Z,26.67
2022-08-21T15:54:53.249Z,26.62
2022-08-21T15:57:24.264Z,26.70
2022-08-21T15:59:56.798Z,26.69
2022-08-21T16:02:27.083Z,26.70
2022-08-21T16:04:55.613Z,26.68
2022-08-21T16:07:23.622Z,26.71
2022-08-21T16:09:54.488Z,26.73
2022-08-21T16:12:26.284Z,26.73
2022-08-21T16:14:56.541Z,26.65
2022-08-21T16:17:29.678Z,26.62
2022-08-21T16:19:57.897Z,26.63
2022-08-21T16:22:26.183Z,26.55
2022-08-21T16:25:09.763Z,26.34
2022-08-21T16:27:38.326Z,26.19
2022-08-21T16:30:11.385Z,26.18
2022-08-21T16:32:40.073Z,26.13
2022-08-21T16:35:08.884Z,26.07
2022-08-21T16:37:36.988Z,25.97
2022-08-21T16:40:07.207Z,25.89
2022-08-21T16:42:37.194Z,25.79
2022-08-21T16:45:06.945Z,25.76
2022-08-21T16:47:36.497Z,25.66
2022-08-21T16:50:07.597Z,25.65
2022-08-21T16:52:36.238Z,25.58
2022-08-21T16:55:05.591Z,25.53
2022-08-21T16:57:34.030Z,25.51
2022-08-21T17:00:04.085Z,25.45
2022-08-21T17:02:36.303Z,25.28
2022-08-21T17:05:13.698Z,25.21
2022-08-21T17:07:43.141Z,25.17
2022-08-21T17:10:13.418Z,25.15
2022-08-21T17:12:43.278Z,25.12
2022-08-21T17:15:23.503Z,25.12
2022-08-21T17:17:52.614Z,25.07
2022-08-21T17:20:22.545Z,25.02
2022-08-21T17:22:50.878Z,24.36
2022-08-21T17:25:19.281Z,24.40
2022-08-21T17:27:49.158Z,24.51
2022-08-21T17:30:18.614Z,24.55
2022-08-21T17:32:48.031Z,24.32
2022-08-21T17:35:16.107Z,24.43
2022-08-21T17:37:46.113Z,24.40
2022-08-21T17:40:16.316Z,24.19
2022-08-21T17:42:46.527Z,24.07
2022-08-21T17:45:17.931Z,24.10
2022-08-21T17:47:45.982Z,24.23
2022-08-21T17:50:15.451Z,24.28
2022-08-21T17:52:50.646Z,24.26
2022-08-21T17:55:20.552Z,24.05
2022-08-21T17:57:51.706Z,24.00
2022-08-21T18:00:21.556Z,23.93
2022-08-21T18:02:53.294Z,23.97
2022-08-21T18:05:21.641Z,23.85
2022-08-21T18:07:51.165Z,23.81
2022-08-21T18:10:19.243Z,23.78
2022-08-21T18:12:47.462Z,23.82
2022-08-21T18:15:17.705Z,23.89
2022-08-21T18:17:47.981Z,23.87
2022-08-21T18:20:18.779Z,23.88
2022-08-21T18:22:47.975Z,23.87
2022-08-21T18:25:18.352Z,23.84
2022-08-21T18:27:48.862Z,23.81
2022-08-21T18:30:21.211Z,23.78
2022-08-21T18:32:49.568Z,23.62
2022-08-21T18:35:18.422Z,23.62
2022-08-21T18:37:46.900Z,23.64
2022-08-21T18:40:16.026Z,23.60
2022-08-21T18:42:55.798Z,23.63
2022-08-21T18:45:24.369Z,23.59
2022-08-21T18:47:54.430Z,23.62
2022-08-21T18:50:26.542Z,23.56
2022-08-21T18:52:55.012Z,23.52
2022-08-21T18:55:24.784Z,23.48
2022-08-21T18:57:55.532Z,23.45
2022-08-21T19:00:27.096Z,23.43
2022-08-21T19:02:55.428Z,23.49
2022-08-21T19:05:25.424Z,23.51
2022-08-21T19:07:56.387Z,23.49
2022-08-21T19:10:28.170Z,23.50
2022-08-21T19:13:00.677Z,23.54
2022-08-21T19:15:29.782Z,23.47
2022-08-21T19:17:58.712Z,23.44
2022-08-21T19:20:30.108Z,23.48
2022-08-21T19:22:58.613Z,23.47
2022-08-21T19:25:34.040Z,23.49
2022-08-21T19:28:11.210Z,23.53
2022-08-21T19:30:41.366Z,23.55
2022-08-21T19:33:11.324Z,23.55
2022-08-21T19:35:52.648Z,23.54
2022-08-21T19:38:21.162Z,23.56
2022-08-21T19:40:49.393Z,23.59
2022-08-21T19:43:23.167Z,23.57
2022-08-21T19:45:54.045Z,23.49
2022-08-21T19:48:22.402Z,23.47
2022-08-21T19:50:51.072Z,23.45
2022-08-21T19:53:19.334Z,23.41
2022-08-21T19:55:48.689Z,23.38
2022-08-21T19:58:27.301Z,23.44
2022-08-21T20:00:55.450Z,23.44
2022-08-21T20:03:23.522Z,23.44
2022-08-21T20:05:51.514Z,23.43
2022-08-21T20:08:22.277Z,23.39
2022-08-21T20:10:58.098Z,23.38
2022-08-21T20:13:27.943Z,23.34
2022-08-21T20:15:56.058Z,23.31
2022-08-21T20:18:26.724Z,23.31
2022-08-21T20:20:55.375Z,23.20
2022-08-21T20:23:30.231Z,23.31
2022-08-21T20:25:58.732Z,23.25
2022-08-21T20:28:28.484Z,23.26
2022-08-21T20:30:57.321Z,23.17
2022-08-21T20:33:26.037Z,23.14
2022-08-21T20:35:55.279Z,23.11
2022-08-21T20:38:23.797Z,23.06
2022-08-21T20:40:55.534Z,23.06
2022-08-21T20:43:25.125Z,23.04
2022-08-21T20:45:55.039Z,22.93
2022-08-21T20:48:27.519Z,22.86
2022-08-21T20:51:02.142Z,22.81
2022-08-21T20:53:43.073Z,22.92
2022-08-21T20:56:19.341Z,22.93
2022-08-21T20:58:56.606Z,22.99
2022-08-21T21:01:27.042Z,23.07
2022-08-21T21:04:03.130Z,23.09
2022-08-21T21:06:34.007Z,23.02
2022-08-21T21:09:11.950Z,23.03
2022-08-21T21:11:45.829Z,23.07
2022-08-21T21:14:23.623Z,23.06
2022-08-21T21:16:54.600Z,22.98
2022-08-21T21:19:36.950Z,22.90
2022-08-21T21:22:25.310Z,22.78
2022-08-21T21:25:00.065Z,22.87
2022-08-21T21:27:34.873Z,22.90
2022-08-21T21:30:12.283Z,22.95
2022-08-21T21:32:44.003Z,23.00
2022-08-21T21:35:15.306Z,22.99
2022-08-21T21:37:48.478Z,22.98
2022-08-21T21:40:32.985Z,22.95
2022-08-21T21:43:11.497Z,22.90
2022-08-21T21:45:57.093Z,22.97
2022-08-21T21:48:37.966Z,22.99
2022-08-21T21:51:15.650Z,23.03
2022-08-21T21:53:55.048Z,23.02
2022-08-21T21:56:36.586Z,23.00
2022-08-21T21:59:23.196Z,22.98
2022-08-21T22:01:57.566Z,22.98
2022-08-21T22:04:39.021Z,22.97
2022-08-21T22:07:26.481Z,22.97
2022-08-21T22:10:05.936Z,22.98
2022-08-21T22:12:55.237Z,22.93
2022-08-21T22:15:27.787Z,22.85
2022-08-21T22:18:02.801Z,22.95
2022-08-21T22:20:37.999Z,22.95
2022-08-21T22:23:11.115Z,22.93
2022-08-21T22:25:48.576Z,22.91
2022-08-21T22:31:18.117Z,22.96
2022-08-21T22:34:05.950Z,22.88
2022-08-21T22:36:40.565Z,22.85
2022-08-21T22:39:16.813Z,22.88
2022-08-21T22:41:47.393Z,22.90
2022-08-21T22:44:23.241Z,22.91
2022-08-21T22:46:58.725Z,22.91
2022-08-21T22:49:39.810Z,22.83
2022-08-21T22:52:23.582Z,22.84
2022-08-21T22:54:55.318Z,22.83
2022-08-21T22:57:28.624Z,22.79
2022-08-21T23:00:00.977Z,22.83
2022-08-21T23:02:38.970Z,22.92
2022-08-21T23:05:19.661Z,22.92
2022-08-21T23:07:50.712Z,22.97
2022-08-21T23:10:27.573Z,22.87
2022-08-21T23:15:58.025Z,22.93
2022-08-21T23:18:36.793Z,22.95
2022-08-21T23:21:11.826Z,22.94
2022-08-21T23:24:01.885Z,22.86
2022-08-21T23:26:38.884Z,22.87
2022-08-21T23:29:25.254Z,22.81
2022-08-21T23:32:03.917Z,22.77
2022-08-21T23:34:45.791Z,22.79
2022-08-21T23:37:49.091Z,22.83
2022-08-21T23:40:51.150Z,22.82
2022-08-21T23:43:45.450Z,22.83
2022-08-21T23:46:34.078Z,22.82
2022-08-21T23:49:31.566Z,22.79
2022-08-21T23:52:11.600Z,22.72
2022-08-21T23:55:04.850Z,22.71
2022-08-21T23:57:51.145Z,22.67
